sensor_id;sensor_type;location;lat;lon;timestamp;P1;durP1;ratioP1;P2;durP2;ratioP2
27293;SDS011;14785;52.556;13.430;2023-04-06T00:01:12;8.70;;;3.53;;
27293;SDS011;14785;52.556;13.430;2023-04-06T00:03:37;3.60;;;2.30;;
27293;SDS011;14785;52.556;13.430;2023-04-06T00:06:03;9.93;;;3.50;;
27293;SDS011;14785;52.556;13.430;2023-04-06T00:08:29;7.15;;;3.25;;
27293;SDS011;14785;52.556;13.430;2023-04-06T00:10:54;5.38;;;3.22;;
27293;SDS011;14785;52.556;13.430;2023-04-06T00:13:20;5.10;;;2.97;;
27293;SDS011;14785;52.556;13.430;2023-04-06T00:15:46;5.43;;;2.40;;
27293;SDS011;14785;52.556;13.430;2023-04-06T00:18:11;5.63;;;2.93;;
27293;SDS011;14785;52.556;13.430;2023-04-06T00:20:40;7.35;;;3.67;;
27293;SDS011;14785;52.556;13.430;2023-04-06T00:23:05;9.47;;;3.33;;
27293;SDS011;14785;52.556;13.430;2023-04-06T00:25:31;6.90;;;2.40;;
27293;SDS011;14785;52.556;13.430;2023-04-06T00:27:56;7.70;;;2.80;;
27293;SDS011;14785;52.556;13.430;2023-04-06T00:30:22;4.00;;;2.63;;
27293;SDS011;14785;52.556;13.430;2023-04-06T00:32:47;6.87;;;3.30;;
27293;SDS011;14785;52.556;13.430;2023-04-06T00:35:12;5.73;;;2.37;;
27293;SDS011;14785;52.556;13.430;2023-04-06T00:37:38;2.77;;;2.23;;
27293;SDS011;14785;52.556;13.430;2023-04-06T00:40:04;2.90;;;2.13;;
27293;SDS011;14785;52.556;13.430;2023-04-06T00:42:30;3.38;;;1.98;;
27293;SDS011;14785;52.556;13.430;2023-04-06T00:44:57;4.83;;;2.80;;
27293;SDS011;14785;52.556;13.430;2023-04-06T00:47:24;3.83;;;2.05;;
27293;SDS011;14785;52.556;13.430;2023-04-06T00:49:51;4.25;;;2.08;;
27293;SDS011;14785;52.556;13.430;2023-04-06T00:52:17;3.78;;;2.25;;
27293;SDS011;14785;52.556;13.430;2023-04-06T00:54:42;4.93;;;2.40;;
27293;SDS011;14785;52.556;13.430;2023-04-06T00:57:08;6.93;;;2.08;;
27293;SDS011;14785;52.556;13.430;2023-04-06T00:59:34;8.43;;;1.90;;
27293;SDS011;14785;52.556;13.430;2023-04-06T01:02:00;5.05;;;3.40;;
27293;SDS011;14785;52.556;13.430;2023-04-06T01:04:26;5.47;;;2.30;;
27293;SDS011;14785;52.556;13.430;2023-04-06T01:06:52;5.03;;;1.90;;
27293;SDS011;14785;52.556;13.430;2023-04-06T01:09:18;4.00;;;2.70;;
27293;SDS011;14785;52.556;13.430;2023-04-06T01:11:43;2.27;;;1.87;;
27293;SDS011;14785;52.556;13.430;2023-04-06T01:14:09;4.00;;;2.13;;
27293;SDS011;14785;52.556;13.430;2023-04-06T01:16:34;3.80;;;2.47;;
27293;SDS011;14785;52.556;13.430;2023-04-06T01:19:00;4.82;;;2.58;;
27293;SDS011;14785;52.556;13.430;2023-04-06T01:21:26;2.60;;;1.70;;
27293;SDS011;14785;52.556;13.430;2023-04-06T01:23:52;3.17;;;2.00;;
27293;SDS011;14785;52.556;13.430;2023-04-06T01:26:17;5.13;;;2.27;;
27293;SDS011;14785;52.556;13.430;2023-04-06T01:28:43;6.07;;;2.20;;
27293;SDS011;14785;52.556;13.430;2023-04-06T01:31:10;4.88;;;2.00;;
27293;SDS011;14785;52.556;13.430;2023-04-06T01:33:36;5.20;;;2.17;;
27293;SDS011;14785;52.556;13.430;2023-04-06T01:36:02;5.03;;;1.97;;
27293;SDS011;14785;52.556;13.430;2023-04-06T01:40:53;4.07;;;1.63;;
27293;SDS011;14785;52.556;13.430;2023-04-06T01:43:19;4.10;;;2.75;;
27293;SDS011;14785;52.556;13.430;2023-04-06T01:45:45;2.33;;;1.67;;
27293;SDS011;14785;52.556;13.430;2023-04-06T01:48:10;6.30;;;2.27;;
27293;SDS011;14785;52.556;13.430;2023-04-06T01:50:36;2.70;;;1.90;;
27293;SDS011;14785;52.556;13.430;2023-04-06T01:53:01;3.70;;;2.33;;
27293;SDS011;14785;52.556;13.430;2023-04-06T01:55:27;2.90;;;1.90;;
27293;SDS011;14785;52.556;13.430;2023-04-06T01:57:52;4.47;;;2.27;;
27293;SDS011;14785;52.556;13.430;2023-04-06T02:00:18;3.70;;;2.03;;
27293;SDS011;14785;52.556;13.430;2023-04-06T02:02:43;3.60;;;1.80;;
27293;SDS011;14785;52.556;13.430;2023-04-06T02:05:09;5.13;;;1.93;;
27293;SDS011;14785;52.556;13.430;2023-04-06T02:07:34;6.50;;;1.90;;
27293;SDS011;14785;52.556;13.430;2023-04-06T02:10:00;3.57;;;2.43;;
27293;SDS011;14785;52.556;13.430;2023-04-06T02:12:25;7.37;;;2.93;;
27293;SDS011;14785;52.556;13.430;2023-04-06T02:14:51;4.93;;;1.87;;
27293;SDS011;14785;52.556;13.430;2023-04-06T02:17:16;5.40;;;2.20;;
27293;SDS011;14785;52.556;13.430;2023-04-06T02:19:42;4.23;;;2.63;;
27293;SDS011;14785;52.556;13.430;2023-04-06T02:22:07;8.17;;;2.73;;
27293;SDS011;14785;52.556;13.430;2023-04-06T02:24:33;5.83;;;2.93;;
27293;SDS011;14785;52.556;13.430;2023-04-06T02:26:58;5.50;;;2.90;;
27293;SDS011;14785;52.556;13.430;2023-04-06T02:29:24;9.68;;;3.20;;
27293;SDS011;14785;52.556;13.430;2023-04-06T02:31:50;2.87;;;2.30;;
27293;SDS011;14785;52.556;13.430;2023-04-06T02:34:15;5.77;;;2.97;;
27293;SDS011;14785;52.556;13.430;2023-04-06T02:36:46;2.97;;;2.22;;
27293;SDS011;14785;52.556;13.430;2023-04-06T02:39:12;4.88;;;2.90;;
27293;SDS011;14785;52.556;13.430;2023-04-06T02:41:39;5.60;;;3.25;;
27293;SDS011;14785;52.556;13.430;2023-04-06T02:44:08;5.23;;;2.77;;
27293;SDS011;14785;52.556;13.430;2023-04-06T02:46:34;9.50;;;3.70;;
27293;SDS011;14785;52.556;13.430;2023-04-06T02:49:00;7.80;;;2.97;;
27293;SDS011;14785;52.556;13.430;2023-04-06T02:51:26;6.23;;;2.93;;
27293;SDS011;14785;52.556;13.430;2023-04-06T02:56:17;4.80;;;3.10;;
27293;SDS011;14785;52.556;13.430;2023-04-06T02:58:43;3.88;;;2.53;;
27293;SDS011;14785;52.556;13.430;2023-04-06T03:01:08;4.50;;;2.17;;
27293;SDS011;14785;52.556;13.430;2023-04-06T03:03:34;5.67;;;3.23;;
27293;SDS011;14785;52.556;13.430;2023-04-06T03:05:59;5.00;;;2.33;;
27293;SDS011;14785;52.556;13.430;2023-04-06T03:08:25;9.43;;;3.07;;
27293;SDS011;14785;52.556;13.430;2023-04-06T03:10:51;6.40;;;2.77;;
27293;SDS011;14785;52.556;13.430;2023-04-06T03:15:42;6.30;;;2.90;;
27293;SDS011;14785;52.556;13.430;2023-04-06T03:18:07;7.00;;;3.80;;
27293;SDS011;14785;52.556;13.430;2023-04-06T03:20:33;5.80;;;2.80;;
27293;SDS011;14785;52.556;13.430;2023-04-06T03:22:58;4.77;;;3.20;;
27293;SDS011;14785;52.556;13.430;2023-04-06T03:25:24;7.87;;;3.63;;
27293;SDS011;14785;52.556;13.430;2023-04-06T03:27:50;9.73;;;4.00;;
27293;SDS011;14785;52.556;13.430;2023-04-06T03:30:15;6.73;;;4.03;;
27293;SDS011;14785;52.556;13.430;2023-04-06T03:32:43;6.85;;;3.75;;
27293;SDS011;14785;52.556;13.430;2023-04-06T03:35:09;5.97;;;4.25;;
27293;SDS011;14785;52.556;13.430;2023-04-06T03:37:35;7.53;;;3.03;;
27293;SDS011;14785;52.556;13.430;2023-04-06T03:40:01;4.65;;;3.15;;
27293;SDS011;14785;52.556;13.430;2023-04-06T03:42:27;6.47;;;3.28;;
27293;SDS011;14785;52.556;13.430;2023-04-06T03:44:53;6.00;;;3.33;;
27293;SDS011;14785;52.556;13.430;2023-04-06T03:47:18;6.07;;;3.40;;
27293;SDS011;14785;52.556;13.430;2023-04-06T03:49:44;5.18;;;3.78;;
27293;SDS011;14785;52.556;13.430;2023-04-06T03:52:09;10.53;;;4.87;;
27293;SDS011;14785;52.556;13.430;2023-04-06T03:54:35;7.93;;;4.87;;
27293;SDS011;14785;52.556;13.430;2023-04-06T03:57:01;4.57;;;3.33;;
27293;SDS011;14785;52.556;13.430;2023-04-06T03:59:26;5.80;;;2.90;;
27293;SDS011;14785;52.556;13.430;2023-04-06T04:01:52;8.83;;;3.63;;
27293;SDS011;14785;52.556;13.430;2023-04-06T04:04:17;5.63;;;3.30;;
27293;SDS011;14785;52.556;13.430;2023-04-06T04:06:43;7.87;;;4.77;;
27293;SDS011;14785;52.556;13.430;2023-04-06T04:09:08;11.27;;;4.03;;
27293;SDS011;14785;52.556;13.430;2023-04-06T04:11:34;8.23;;;3.90;;
27293;SDS011;14785;52.556;13.430;2023-04-06T04:13:59;6.90;;;4.37;;
27293;SDS011;14785;52.556;13.430;2023-04-06T04:16:25;6.33;;;3.40;;
27293;SDS011;14785;52.556;13.430;2023-04-06T04:18:50;6.57;;;3.63;;
27293;SDS011;14785;52.556;13.430;2023-04-06T04:21:16;16.87;;;5.33;;
27293;SDS011;14785;52.556;13.430;2023-04-06T04:23:41;7.43;;;3.77;;
27293;SDS011;14785;52.556;13.430;2023-04-06T04:26:07;10.63;;;3.87;;
27293;SDS011;14785;52.556;13.430;2023-04-06T04:28:32;7.57;;;4.63;;
27293;SDS011;14785;52.556;13.430;2023-04-06T04:30:57;9.57;;;3.40;;
27293;SDS011;14785;52.556;13.430;2023-04-06T04:33:23;6.87;;;4.13;;
27293;SDS011;14785;52.556;13.430;2023-04-06T04:35:48;8.57;;;4.20;;
27293;SDS011;14785;52.556;13.430;2023-04-06T04:38:14;6.43;;;2.77;;
27293;SDS011;14785;52.556;13.430;2023-04-06T04:40:39;5.77;;;3.40;;
27293;SDS011;14785;52.556;13.430;2023-04-06T04:43:05;8.33;;;4.37;;
27293;SDS011;14785;52.556;13.430;2023-04-06T04:45:30;8.40;;;4.23;;
27293;SDS011;14785;52.556;13.430;2023-04-06T04:47:56;7.13;;;3.40;;
27293;SDS011;14785;52.556;13.430;2023-04-06T04:50:21;6.67;;;4.00;;
27293;SDS011;14785;52.556;13.430;2023-04-06T04:52:46;6.37;;;3.40;;
27293;SDS011;14785;52.556;13.430;2023-04-06T04:55:12;7.80;;;4.13;;
27293;SDS011;14785;52.556;13.430;2023-04-06T04:57:38;6.05;;;3.83;;
27293;SDS011;14785;52.556;13.430;2023-04-06T05:00:03;7.57;;;4.63;;
27293;SDS011;14785;52.556;13.430;2023-04-06T05:02:30;7.28;;;3.50;;
27293;SDS011;14785;52.556;13.430;2023-04-06T05:04:55;7.33;;;4.40;;
27293;SDS011;14785;52.556;13.430;2023-04-06T05:07:21;9.20;;;4.57;;
27293;SDS011;14785;52.556;13.430;2023-04-06T05:09:46;6.23;;;3.90;;
27293;SDS011;14785;52.556;13.430;2023-04-06T05:12:12;9.30;;;4.10;;
27293;SDS011;14785;52.556;13.430;2023-04-06T05:14:38;5.90;;;4.17;;
27293;SDS011;14785;52.556;13.430;2023-04-06T05:17:03;15.33;;;4.53;;
27293;SDS011;14785;52.556;13.430;2023-04-06T05:19:29;8.43;;;3.73;;
27293;SDS011;14785;52.556;13.430;2023-04-06T05:21:55;12.77;;;4.72;;
27293;SDS011;14785;52.556;13.430;2023-04-06T05:24:20;5.07;;;3.93;;
27293;SDS011;14785;52.556;13.430;2023-04-06T05:26:46;9.93;;;3.08;;
27293;SDS011;14785;52.556;13.430;2023-04-06T05:29:13;11.63;;;4.18;;
27293;SDS011;14785;52.556;13.430;2023-04-06T05:31:38;6.67;;;3.67;;
27293;SDS011;14785;52.556;13.430;2023-04-06T05:34:06;8.93;;;4.20;;
27293;SDS011;14785;52.556;13.430;2023-04-06T05:36:34;9.98;;;3.75;;
27293;SDS011;14785;52.556;13.430;2023-04-06T05:39:00;6.72;;;4.43;;
27293;SDS011;14785;52.556;13.430;2023-04-06T05:41:25;9.50;;;4.43;;
27293;SDS011;14785;52.556;13.430;2023-04-06T05:43:51;10.17;;;4.23;;
27293;SDS011;14785;52.556;13.430;2023-04-06T05:46:16;7.07;;;3.87;;
27293;SDS011;14785;52.556;13.430;2023-04-06T05:48:43;3.97;;;2.33;;
27293;SDS011;14785;52.556;13.430;2023-04-06T05:51:10;8.38;;;4.38;;
27293;SDS011;14785;52.556;13.430;2023-04-06T05:53:35;5.17;;;3.23;;
27293;SDS011;14785;52.556;13.430;2023-04-06T05:56:01;5.93;;;3.47;;
27293;SDS011;14785;52.556;13.430;2023-04-06T05:58:27;10.40;;;4.57;;
27293;SDS011;14785;52.556;13.430;2023-04-06T06:00:57;7.90;;;3.95;;
27293;SDS011;14785;52.556;13.430;2023-04-06T06:03:22;8.95;;;3.95;;
27293;SDS011;14785;52.556;13.430;2023-04-06T06:05:48;7.23;;;3.73;;
27293;SDS011;14785;52.556;13.430;2023-04-06T06:08:13;7.87;;;4.47;;
27293;SDS011;14785;52.556;13.430;2023-04-06T06:10:39;8.02;;;3.88;;
27293;SDS011;14785;52.556;13.430;2023-04-06T06:13:05;4.90;;;3.67;;
27293;SDS011;14785;52.556;13.430;2023-04-06T06:15:31;8.20;;;4.17;;
27293;SDS011;14785;52.556;13.430;2023-04-06T06:17:56;6.73;;;3.10;;
27293;SDS011;14785;52.556;13.430;2023-04-06T06:20:22;7.87;;;3.77;;
27293;SDS011;14785;52.556;13.430;2023-04-06T06:22:47;6.27;;;3.50;;
27293;SDS011;14785;52.556;13.430;2023-04-06T06:25:13;7.07;;;3.67;;
27293;SDS011;14785;52.556;13.430;2023-04-06T06:27:38;7.90;;;4.10;;
27293;SDS011;14785;52.556;13.430;2023-04-06T06:30:04;6.07;;;3.67;;
27293;SDS011;14785;52.556;13.430;2023-04-06T06:32:30;9.65;;;3.42;;
27293;SDS011;14785;52.556;13.430;2023-04-06T06:34:55;5.57;;;2.93;;
27293;SDS011;14785;52.556;13.430;2023-04-06T06:37:21;8.20;;;3.80;;
27293;SDS011;14785;52.556;13.430;2023-04-06T06:39:46;11.33;;;4.37;;
27293;SDS011;14785;52.556;13.430;2023-04-06T06:42:12;6.80;;;3.47;;
27293;SDS011;14785;52.556;13.430;2023-04-06T06:44:37;4.07;;;2.90;;
27293;SDS011;14785;52.556;13.430;2023-04-06T06:47:03;5.67;;;2.87;;
27293;SDS011;14785;52.556;13.430;2023-04-06T06:49:29;8.30;;;3.33;;
27293;SDS011;14785;52.556;13.430;2023-04-06T06:51:54;4.87;;;4.00;;
27293;SDS011;14785;52.556;13.430;2023-04-06T06:54:20;3.93;;;2.77;;
27293;SDS011;14785;52.556;13.430;2023-04-06T06:56:45;8.43;;;4.50;;
27293;SDS011;14785;52.556;13.430;2023-04-06T06:59:11;6.60;;;3.63;;
27293;SDS011;14785;52.556;13.430;2023-04-06T07:01:36;4.67;;;3.03;;
27293;SDS011;14785;52.556;13.430;2023-04-06T07:04:02;6.00;;;3.77;;
27293;SDS011;14785;52.556;13.430;2023-04-06T07:06:27;3.83;;;1.97;;
27293;SDS011;14785;52.556;13.430;2023-04-06T07:08:52;7.70;;;3.33;;
27293;SDS011;14785;52.556;13.430;2023-04-06T07:11:18;11.47;;;3.50;;
27293;SDS011;14785;52.556;13.430;2023-04-06T07:13:44;7.90;;;3.13;;
27293;SDS011;14785;52.556;13.430;2023-04-06T07:16:09;7.35;;;2.63;;
27293;SDS011;14785;52.556;13.430;2023-04-06T07:18:34;8.27;;;4.57;;
27293;SDS011;14785;52.556;13.430;2023-04-06T07:21:00;9.00;;;4.53;;
27293;SDS011;14785;52.556;13.430;2023-04-06T07:23:25;6.57;;;3.13;;
27293;SDS011;14785;52.556;13.430;2023-04-06T07:25:51;11.90;;;2.67;;
27293;SDS011;14785;52.556;13.430;2023-04-06T07:28:18;7.57;;;3.45;;
27293;SDS011;14785;52.556;13.430;2023-04-06T07:30:44;6.97;;;2.60;;
27293;SDS011;14785;52.556;13.430;2023-04-06T07:33:10;3.75;;;2.55;;
27293;SDS011;14785;52.556;13.430;2023-04-06T07:35:35;4.87;;;3.10;;
27293;SDS011;14785;52.556;13.430;2023-04-06T07:38:01;21.52;;;3.25;;
27293;SDS011;14785;52.556;13.430;2023-04-06T07:40:27;5.32;;;3.28;;
27293;SDS011;14785;52.556;13.430;2023-04-06T07:42:53;4.50;;;2.27;;
27293;SDS011;14785;52.556;13.430;2023-04-06T07:45:18;5.82;;;2.95;;
27293;SDS011;14785;52.556;13.430;2023-04-06T07:47:45;4.80;;;2.30;;
27293;SDS011;14785;52.556;13.430;2023-04-06T07:52:36;5.07;;;2.67;;
27293;SDS011;14785;52.556;13.430;2023-04-06T07:57:28;8.57;;;4.10;;
27293;SDS011;14785;52.556;13.430;2023-04-06T07:59:54;5.93;;;2.70;;
27293;SDS011;14785;52.556;13.430;2023-04-06T08:02:19;3.47;;;2.33;;
27293;SDS011;14785;52.556;13.430;2023-04-06T08:04:45;5.07;;;1.90;;
27293;SDS011;14785;52.556;13.430;2023-04-06T08:07:10;4.87;;;2.30;;
27293;SDS011;14785;52.556;13.430;2023-04-06T08:09:36;5.63;;;1.98;;
27293;SDS011;14785;52.556;13.430;2023-04-06T08:12:01;6.83;;;1.83;;
27293;SDS011;14785;52.556;13.430;2023-04-06T08:14:27;4.30;;;2.27;;
27293;SDS011;14785;52.556;13.430;2023-04-06T08:16:52;6.43;;;2.70;;
27293;SDS011;14785;52.556;13.430;2023-04-06T08:19:18;17.47;;;2.70;;
27293;SDS011;14785;52.556;13.430;2023-04-06T08:21:44;5.15;;;2.42;;
27293;SDS011;14785;52.556;13.430;2023-04-06T08:24:11;7.65;;;3.47;;
27293;SDS011;14785;52.556;13.430;2023-04-06T08:26:37;7.72;;;3.03;;
27293;SDS011;14785;52.556;13.430;2023-04-06T08:29:03;6.40;;;3.10;;
27293;SDS011;14785;52.556;13.430;2023-04-06T08:31:29;8.57;;;2.45;;
27293;SDS011;14785;52.556;13.430;2023-04-06T08:33:55;7.72;;;2.90;;
27293;SDS011;14785;52.556;13.430;2023-04-06T08:36:21;4.38;;;2.28;;
27293;SDS011;14785;52.556;13.430;2023-04-06T08:38:48;5.35;;;2.72;;
27293;SDS011;14785;52.556;13.430;2023-04-06T08:41:14;3.10;;;1.80;;
27293;SDS011;14785;52.556;13.430;2023-04-06T08:46:33;3.47;;;1.50;;
27293;SDS011;14785;52.556;13.430;2023-04-06T08:49:02;4.00;;;1.40;;
27293;SDS011;14785;52.556;13.430;2023-04-06T08:51:28;3.33;;;2.10;;
27293;SDS011;14785;52.556;13.430;2023-04-06T08:53:58;2.72;;;1.50;;
27293;SDS011;14785;52.556;13.430;2023-04-06T08:56:25;1.98;;;1.45;;
27293;SDS011;14785;52.556;13.430;2023-04-06T08:58:53;4.22;;;2.10;;
27293;SDS011;14785;52.556;13.430;2023-04-06T09:01:26;5.13;;;1.80;;
27293;SDS011;14785;52.556;13.430;2023-04-06T09:03:56;8.35;;;1.30;;
27293;SDS011;14785;52.556;13.430;2023-04-06T09:06:24;2.55;;;1.50;;
27293;SDS011;14785;52.556;13.430;2023-04-06T09:08:51;4.38;;;1.10;;
27293;SDS011;14785;52.556;13.430;2023-04-06T09:11:17;2.57;;;1.70;;
27293;SDS011;14785;52.556;13.430;2023-04-06T09:13:49;2.77;;;1.50;;
27293;SDS011;14785;52.556;13.430;2023-04-06T09:16:16;2.75;;;1.55;;
27293;SDS011;14785;52.556;13.430;2023-04-06T09:18:43;3.03;;;1.48;;
27293;SDS011;14785;52.556;13.430;2023-04-06T09:21:09;3.05;;;1.75;;
27293;SDS011;14785;52.556;13.430;2023-04-06T09:23:35;4.18;;;1.90;;
27293;SDS011;14785;52.556;13.430;2023-04-06T09:26:05;3.92;;;1.55;;
27293;SDS011;14785;52.556;13.430;2023-04-06T09:28:48;4.10;;;1.23;;
27293;SDS011;14785;52.556;13.430;2023-04-06T09:31:14;1.50;;;1.08;;
27293;SDS011;14785;52.556;13.430;2023-04-06T09:33:42;4.45;;;1.48;;
27293;SDS011;14785;52.556;13.430;2023-04-06T09:36:09;2.60;;;1.25;;
27293;SDS011;14785;52.556;13.430;2023-04-06T09:38:50;2.95;;;1.15;;
27293;SDS011;14785;52.556;13.430;2023-04-06T09:41:23;2.55;;;1.88;;
27293;SDS011;14785;52.556;13.430;2023-04-06T09:43:49;2.40;;;1.00;;
27293;SDS011;14785;52.556;13.430;2023-04-06T09:46:16;5.90;;;2.25;;
27293;SDS011;14785;52.556;13.430;2023-04-06T09:48:43;2.17;;;1.48;;
27293;SDS011;14785;52.556;13.430;2023-04-06T09:51:09;4.00;;;1.63;;
27293;SDS011;14785;52.556;13.430;2023-04-06T09:53:39;8.23;;;2.15;;
27293;SDS011;14785;52.556;13.430;2023-04-06T09:56:07;1.65;;;1.17;;
27293;SDS011;14785;52.556;13.430;2023-04-06T09:58:38;4.75;;;1.30;;
27293;SDS011;14785;52.556;13.430;2023-04-06T10:01:10;3.30;;;1.70;;
27293;SDS011;14785;52.556;13.430;2023-04-06T10:03:55;3.53;;;1.38;;
27293;SDS011;14785;52.556;13.430;2023-04-06T10:06:28;1.50;;;1.33;;
27293;SDS011;14785;52.556;13.430;2023-04-06T10:09:01;12.20;;;2.63;;
27293;SDS011;14785;52.556;13.430;2023-04-06T10:11:29;5.47;;;1.30;;
27293;SDS011;14785;52.556;13.430;2023-04-06T10:13:56;2.97;;;1.42;;
27293;SDS011;14785;52.556;13.430;2023-04-06T10:16:22;1.15;;;0.68;;
27293;SDS011;14785;52.556;13.430;2023-04-06T10:18:50;10.52;;;1.10;;
27293;SDS011;14785;52.556;13.430;2023-04-06T10:21:20;2.78;;;0.90;;
27293;SDS011;14785;52.556;13.430;2023-04-06T10:23:52;5.13;;;1.38;;
27293;SDS011;14785;52.556;13.430;2023-04-06T10:26:25;3.30;;;1.02;;
27293;SDS011;14785;52.556;13.430;2023-04-06T10:28:51;3.50;;;1.13;;
27293;SDS011;14785;52.556;13.430;2023-04-06T10:31:25;4.18;;;1.98;;
27293;SDS011;14785;52.556;13.430;2023-04-06T10:33:55;2.42;;;1.05;;
27293;SDS011;14785;52.556;13.430;2023-04-06T10:36:22;1.02;;;0.82;;
27293;SDS011;14785;52.556;13.430;2023-04-06T10:38:54;2.67;;;1.10;;
27293;SDS011;14785;52.556;13.430;2023-04-06T10:41:21;2.83;;;1.55;;
27293;SDS011;14785;52.556;13.430;2023-04-06T10:43:54;2.87;;;1.17;;
27293;SDS011;14785;52.556;13.430;2023-04-06T10:46:28;1.40;;;1.15;;
27293;SDS011;14785;52.556;13.430;2023-04-06T10:48:55;1.45;;;1.05;;
27293;SDS011;14785;52.556;13.430;2023-04-06T10:51:24;1.10;;;0.90;;
27293;SDS011;14785;52.556;13.430;2023-04-06T10:53:52;2.05;;;1.05;;
27293;SDS011;14785;52.556;13.430;2023-04-06T10:56:21;2.40;;;0.68;;
27293;SDS011;14785;52.556;13.430;2023-04-06T10:58:48;2.53;;;0.82;;
27293;SDS011;14785;52.556;13.430;2023-04-06T11:01:17;1.77;;;0.98;;
27293;SDS011;14785;52.556;13.430;2023-04-06T11:03:44;1.70;;;1.02;;
27293;SDS011;14785;52.556;13.430;2023-04-06T11:06:10;2.03;;;1.30;;
27293;SDS011;14785;52.556;13.430;2023-04-06T11:08:43;2.65;;;1.75;;
27293;SDS011;14785;52.556;13.430;2023-04-06T11:11:13;1.67;;;1.03;;
27293;SDS011;14785;52.556;13.430;2023-04-06T11:24:05;1.50;;;1.10;;
27293;SDS011;14785;52.556;13.430;2023-04-06T11:26:56;1.98;;;0.95;;
27293;SDS011;14785;52.556;13.430;2023-04-06T11:29:24;6.30;;;2.40;;
27293;SDS011;14785;52.556;13.430;2023-04-06T11:31:52;4.25;;;1.50;;
27293;SDS011;14785;52.556;13.430;2023-04-06T11:34:19;1.35;;;0.98;;
27293;SDS011;14785;52.556;13.430;2023-04-06T11:36:46;2.15;;;1.33;;
27293;SDS011;14785;52.556;13.430;2023-04-06T11:39:17;1.23;;;1.13;;
27293;SDS011;14785;52.556;13.430;2023-04-06T11:41:51;2.92;;;1.25;;
27293;SDS011;14785;52.556;13.430;2023-04-06T11:44:28;3.00;;;1.70;;
27293;SDS011;14785;52.556;13.430;2023-04-06T11:46:56;1.30;;;0.90;;
27293;SDS011;14785;52.556;13.430;2023-04-06T11:49:26;2.10;;;0.85;;
27293;SDS011;14785;52.556;13.430;2023-04-06T11:51:55;2.55;;;0.68;;
27293;SDS011;14785;52.556;13.430;2023-04-06T11:56:57;1.73;;;1.33;;
27293;SDS011;14785;52.556;13.430;2023-04-06T11:59:23;2.03;;;0.80;;
27293;SDS011;14785;52.556;13.430;2023-04-06T12:01:48;1.33;;;1.23;;
27293;SDS011;14785;52.556;13.430;2023-04-06T12:04:14;1.10;;;0.80;;
27293;SDS011;14785;52.556;13.430;2023-04-06T12:06:39;2.23;;;1.07;;
27293;SDS011;14785;52.556;13.430;2023-04-06T12:09:05;2.83;;;1.07;;
27293;SDS011;14785;52.556;13.430;2023-04-06T12:11:30;1.20;;;1.07;;
27293;SDS011;14785;52.556;13.430;2023-04-06T12:13:58;1.65;;;1.33;;
27293;SDS011;14785;52.556;13.430;2023-04-06T12:16:26;2.10;;;1.40;;
27293;SDS011;14785;52.556;13.430;2023-04-06T12:18:52;1.60;;;1.20;;
27293;SDS011;14785;52.556;13.430;2023-04-06T12:21:17;2.43;;;1.13;;
27293;SDS011;14785;52.556;13.430;2023-04-06T12:23:43;2.17;;;1.63;;
27293;SDS011;14785;52.556;13.430;2023-04-06T12:26:08;3.60;;;0.80;;
27293;SDS011;14785;52.556;13.430;2023-04-06T12:28:36;0.80;;;0.80;;
27293;SDS011;14785;52.556;13.430;2023-04-06T12:31:01;2.60;;;1.17;;
27293;SDS011;14785;52.556;13.430;2023-04-06T12:33:27;1.40;;;1.30;;
27293;SDS011;14785;52.556;13.430;2023-04-06T12:35:52;1.30;;;0.90;;
27293;SDS011;14785;52.556;13.430;2023-04-06T12:38:18;3.97;;;1.17;;
27293;SDS011;14785;52.556;13.430;2023-04-06T12:40:43;1.13;;;1.07;;
27293;SDS011;14785;52.556;13.430;2023-04-06T12:43:10;6.63;;;1.53;;
27293;SDS011;14785;52.556;13.430;2023-04-06T12:45:38;3.95;;;1.20;;
27293;SDS011;14785;52.556;13.430;2023-04-06T12:48:04;1.95;;;0.85;;
27293;SDS011;14785;52.556;13.430;2023-04-06T12:50:29;0.93;;;0.90;;
27293;SDS011;14785;52.556;13.430;2023-04-06T12:52:55;3.07;;;1.17;;
27293;SDS011;14785;52.556;13.430;2023-04-06T12:55:20;1.07;;;0.83;;
27293;SDS011;14785;52.556;13.430;2023-04-06T12:57:46;2.03;;;0.98;;
27293;SDS011;14785;52.556;13.430;2023-04-06T13:00:12;2.43;;;1.07;;
27293;SDS011;14785;52.556;13.430;2023-04-06T13:02:39;1.08;;;0.65;;
27293;SDS011;14785;52.556;13.430;2023-04-06T13:05:04;4.50;;;1.57;;
27293;SDS011;14785;52.556;13.430;2023-04-06T13:07:30;2.53;;;0.90;;
27293;SDS011;14785;52.556;13.430;2023-04-06T13:09:56;2.63;;;1.43;;
27293;SDS011;14785;52.556;13.430;2023-04-06T13:12:21;1.47;;;0.50;;
27293;SDS011;14785;52.556;13.430;2023-04-06T13:14:46;0.80;;;0.77;;
27293;SDS011;14785;52.556;13.430;2023-04-06T13:17:16;0.82;;;0.60;;
27293;SDS011;14785;52.556;13.430;2023-04-06T13:19:42;4.05;;;1.30;;
27293;SDS011;14785;52.556;13.430;2023-04-06T13:22:08;4.13;;;0.90;;
27293;SDS011;14785;52.556;13.430;2023-04-06T13:24:33;2.53;;;1.13;;
27293;SDS011;14785;52.556;13.430;2023-04-06T13:26:59;3.45;;;1.40;;
27293;SDS011;14785;52.556;13.430;2023-04-06T13:29:25;1.42;;;1.00;;
27293;SDS011;14785;52.556;13.430;2023-04-06T13:31:52;1.17;;;0.95;;
27293;SDS011;14785;52.556;13.430;2023-04-06T13:34:18;2.55;;;1.20;;
27293;SDS011;14785;52.556;13.430;2023-04-06T13:36:43;1.60;;;0.90;;
27293;SDS011;14785;52.556;13.430;2023-04-06T13:39:08;2.67;;;1.50;;
27293;SDS011;14785;52.556;13.430;2023-04-06T13:41:34;1.15;;;0.95;;
27293;SDS011;14785;52.556;13.430;2023-04-06T13:44:00;2.08;;;1.10;;
27293;SDS011;14785;52.556;13.430;2023-04-06T13:46:25;1.23;;;0.90;;
27293;SDS011;14785;52.556;13.430;2023-04-06T13:48:55;3.05;;;1.15;;
27293;SDS011;14785;52.556;13.430;2023-04-06T13:51:21;1.70;;;0.93;;
27293;SDS011;14785;52.556;13.430;2023-04-06T13:53:46;2.63;;;1.20;;
27293;SDS011;14785;52.556;13.430;2023-04-06T13:56:11;1.30;;;0.97;;
27293;SDS011;14785;52.556;13.430;2023-04-06T13:58:37;1.20;;;1.10;;
27293;SDS011;14785;52.556;13.430;2023-04-06T14:01:06;2.50;;;1.40;;
27293;SDS011;14785;52.556;13.430;2023-04-06T14:03:34;0.82;;;0.70;;
27293;SDS011;14785;52.556;13.430;2023-04-06T14:06:00;2.70;;;1.60;;
27293;SDS011;14785;52.556;13.430;2023-04-06T14:08:26;1.83;;;1.23;;
27293;SDS011;14785;52.556;13.430;2023-04-06T14:10:51;1.97;;;1.30;;
27293;SDS011;14785;52.556;13.430;2023-04-06T14:13:17;0.93;;;0.83;;
27293;SDS011;14785;52.556;13.430;2023-04-06T14:18:09;2.03;;;1.35;;
27293;SDS011;14785;52.556;13.430;2023-04-06T14:20:34;1.73;;;0.77;;
27293;SDS011;14785;52.556;13.430;2023-04-06T14:23:00;1.60;;;1.17;;
27293;SDS011;14785;52.556;13.430;2023-04-06T14:25:26;2.40;;;1.23;;
27293;SDS011;14785;52.556;13.430;2023-04-06T14:27:52;2.35;;;1.13;;
27293;SDS011;14785;52.556;13.430;2023-04-06T14:30:18;1.25;;;0.90;;
27293;SDS011;14785;52.556;13.430;2023-04-06T14:32:43;1.73;;;1.03;;
27293;SDS011;14785;52.556;13.430;2023-04-06T14:35:09;3.30;;;0.83;;
27293;SDS011;14785;52.556;13.430;2023-04-06T14:37:35;2.58;;;0.80;;
27293;SDS011;14785;52.556;13.430;2023-04-06T14:40:00;0.93;;;0.83;;
27293;SDS011;14785;52.556;13.430;2023-04-06T14:42:26;3.05;;;1.38;;
27293;SDS011;14785;52.556;13.430;2023-04-06T14:44:52;2.40;;;1.07;;
27293;SDS011;14785;52.556;13.430;2023-04-06T14:49:50;4.35;;;1.80;;
27293;SDS011;14785;52.556;13.430;2023-04-06T14:52:16;1.45;;;0.90;;
27293;SDS011;14785;52.556;13.430;2023-04-06T14:54:42;1.83;;;1.23;;
27293;SDS011;14785;52.556;13.430;2023-04-06T14:57:07;2.83;;;1.67;;
27293;SDS011;14785;52.556;13.430;2023-04-06T14:59:32;0.97;;;0.90;;
27293;SDS011;14785;52.556;13.430;2023-04-06T15:01:58;3.37;;;1.27;;